Time;durP1;ratioP1;P1;durP2;ratioP2;P2;SDS_P1;SDS_P2;PMS_P1;PMS_P2;Temp;Humidity;BMP_temperature;BMP_pressure;BME280_temperature;BME280_humidity;BME280_pressure;Samples;Min_cycle;Max_cycle;Signal;HPM_P1;HPM_P2
2024/02/17 00:00:10;;;;;;;5.18;2.70;;;18.90;46.30;;;;;;8387878;28;20549;-54
2024/02/17 00:04:10;;;;;;;;;;;18.90;46.30;;;;;;8391228;28;20099;-52
2024/02/17 00:08:11;;;;;;;5.23;2.63;;;18.90;46.20;;;;;;8388108;28;19917;-54
2024/02/17 00:12:12;;;;;;;5.20;2.60;;;18.90;46.10;;;;;;8391542;28;20540;-54
2024/02/17 00:16:12;;;;;;;5.28;2.70;;;18.90;46.10;;;;;;8406592;28;20061;-52
2024/02/17 00:20:14;;;;;;;5.68;2.83;;;18.90;46.00;;;;;;8405117;28;20032;-53
2024/02/17 00:24:15;;;;;;;8.43;2.40;;;18.90;46.30;;;;;;8404183;28;20028;-56
2024/02/17 00:28:16;;;;;;;6.25;3.30;;;18.90;46.30;;;;;;8404807;28;20055;-53
2024/02/17 00:32:17;;;;;;;6.65;2.70;;;18.90;46.20;;;;;;8406030;28;20024;-48
2024/02/17 00:36:18;;;;;;;;;;;18.90;46.20;;;;;;8405968;28;20542;-52
2024/02/17 00:40:19;;;;;;;20.42;4.25;;;18.90;46.30;;;;;;8402545;28;19931;-54
2024/02/17 00:44:20;;;;;;;23.27;4.80;;;18.90;46.30;;;;;;8402095;28;20044;-53
2024/02/17 00:48:21;;;;;;;11.73;4.57;;;18.90;46.50;;;;;;8405290;28;20039;-52
2024/02/17 00:52:22;;;;;;;14.95;4.53;;;18.90;46.90;;;;;;8403638;28;20039;-50
2024/02/17 00:56:23;;;;;;;11.70;4.40;;;18.80;46.40;;;;;;8401688;28;20041;-54
2024/02/17 01:00:23;;;;;;;9.88;3.80;;;18.70;46.90;;;;;;8403590;28;20032;-47
2024/02/17 01:04:24;;;;;;;12.30;3.70;;;18.70;47.10;;;;;;8405643;28;20028;-52
2024/02/17 01:08:25;;;;;;;12.20;4.60;;;18.70;47.10;;;;;;8398865;28;20047;-55
2024/02/17 01:12:25;;;;;;;9.20;3.65;;;18.80;47.00;;;;;;8410278;28;20083;-55
2024/02/17 01:16:26;;;;;;;18.08;4.50;;;18.90;47.10;;;;;;8389517;28;20037;-54
2024/02/17 01:20:27;;;;;;;11.27;4.65;;;18.90;47.10;;;;;;8403916;28;20115;-52
2024/02/17 01:24:27;;;;;;;10.55;4.38;;;18.90;48.30;;;;;;8407588;28;20060;-53
2024/02/17 01:28:28;;;;;;;16.95;4.25;;;19.00;48.20;;;;;;8408551;28;20040;-53
2024/02/17 01:32:29;;;;;;;7.85;3.22;;;19.00;47.70;;;;;;8405639;28;20086;-53
2024/02/17 01:36:30;;;;;;;9.35;3.97;;;19.00;47.70;;;;;;8407351;28;20028;-53
2024/02/17 01:40:30;;;;;;;10.43;3.67;;;19.10;47.60;;;;;;8403279;28;20111;-54
2024/02/17 01:44:31;;;;;;;5.28;3.35;;;19.10;47.50;;;;;;8407189;28;20059;-53
2024/02/17 01:48:32;;;;;;;10.13;3.60;;;19.10;47.40;;;;;;8407008;28;20071;-55
2024/02/17 01:52:33;;;;;;;6.22;3.25;;;19.10;47.40;;;;;;8407420;28;20037;-51
2024/02/17 01:56:36;;;;;;;18.02;3.53;;;19.10;47.50;;;;;;8401538;28;20162;-52
2024/02/17 02:00:37;;;;;;;12.50;3.08;;;19.00;47.50;;;;;;8404199;28;20029;-52
2024/02/17 02:04:38;;;;;;;10.48;3.63;;;19.10;47.30;;;;;;8405572;28;20063;-51
2024/02/17 02:08:39;;;;;;;5.95;3.28;;;19.10;47.20;;;;;;8405206;28;20029;-52
2024/02/17 02:12:48;;;;;;;6.10;3.20;;;19.10;47.30;;;;;;8385123;28;20861;-51
2024/02/17 02:16:49;;;;;;;7.10;3.00;;;19.10;47.20;;;;;;8384642;28;20045;-52
2024/02/17 02:20:50;;;;;;;8.68;3.10;;;19.10;47.10;;;;;;8384897;28;20041;-52
2024/02/17 02:24:56;;;;;;;4.93;2.90;;;19.10;47.10;;;;;;8384223;28;20477;-49
2024/02/17 02:28:57;;;;;;;7.88;3.10;;;19.10;47.20;;;;;;8384100;28;20503;-49
2024/02/17 02:32:58;;;;;;;6.38;2.72;;;19.10;47.10;;;;;;8384804;28;20071;-48
2024/02/17 02:36:59;;;;;;;5.72;3.30;;;19.10;47.10;;;;;;8384175;28;20043;-48
2024/02/17 02:41:00;;;;;;;5.22;2.35;;;19.10;47.10;;;;;;8389569;28;20040;-51
2024/02/17 02:45:00;;;;;;;7.63;2.70;;;19.10;47.10;;;;;;8389855;28;20037;-49
2024/02/17 02:49:01;;;;;;;6.93;2.60;;;19.10;47.00;;;;;;8389591;28;20119;-52
2024/02/17 02:53:03;;;;;;;5.55;2.75;;;19.10;47.00;;;;;;8388809;28;20486;-52
2024/02/17 02:57:04;;;;;;;5.57;3.30;;;19.10;47.00;;;;;;8388133;28;20474;-52
2024/02/17 03:01:05;;;;;;;8.20;2.65;;;19.10;47.00;;;;;;8389281;28;20521;-51
2024/02/17 03:05:05;;;;;;;5.03;3.53;;;19.10;47.00;;;;;;8388793;28;20416;-51
2024/02/17 03:09:06;;;;;;;5.10;2.53;;;19.10;46.90;;;;;;8388798;28;20080;-48
2024/02/17 03:13:07;;;;;;;4.72;2.78;;;19.10;47.00;;;;;;8388793;28;20024;-51
2024/02/17 03:17:08;;;;;;;7.25;3.15;;;19.10;46.90;;;;;;8388651;28;20087;-50
2024/02/17 03:21:09;;;;;;;5.65;3.15;;;19.10;46.90;;;;;;8382987;28;20048;-51
2024/02/17 03:25:10;;;;;;;5.93;2.90;;;19.10;47.00;;;;;;8345646;28;20037;-50
2024/02/17 03:29:10;;;;;;;7.32;2.28;;;19.10;47.00;;;;;;8358171;28;20033;-52
2024/02/17 03:33:13;;;;;;;5.72;2.72;;;19.10;46.80;;;;;;8362105;28;20057;-50
2024/02/17 03:37:14;;;;;;;6.05;3.05;;;19.10;47.10;;;;;;8362903;28;20043;-49
2024/02/17 03:41:15;;;;;;;5.40;2.70;;;19.00;46.90;;;;;;8363168;28;20033;-49
2024/02/17 03:45:16;;;;;;;6.22;2.72;;;19.00;46.90;;;;;;8363760;28;20051;-52
2024/02/17 03:49:20;;;;;;;6.43;2.70;;;18.90;46.90;;;;;;8363772;28;20033;-50
2024/02/17 03:53:21;;;;;;;7.32;2.90;;;18.90;46.90;;;;;;8363703;28;20033;-50
2024/02/17 03:57:22;;;;;;;5.72;2.72;;;18.90;46.90;;;;;;8363478;28;20136;-51
2024/02/17 04:01:22;;;;;;;3.35;2.50;;;18.90;46.90;;;;;;8363273;28;20108;-50
2024/02/17 04:05:23;;;;;;;4.88;2.78;;;18.90;46.90;;;;;;8363080;28;20086;-51
2024/02/17 04:09:24;;;;;;;4.50;2.55;;;18.80;46.90;;;;;;8361569;28;20578;-49
2024/02/17 04:13:25;;;;;;;7.43;2.47;;;18.80;46.90;;;;;;8363188;28;20116;-50
2024/02/17 04:17:25;;;;;;;6.40;2.70;;;18.80;47.40;;;;;;8362826;28;20034;-51
2024/02/17 04:21:26;;;;;;;5.05;2.53;;;18.80;46.90;;;;;;8362678;28;20036;-51
2024/02/17 04:25:27;;;;;;;5.75;2.83;;;18.80;46.90;;;;;;8362697;28;20091;-50
2024/02/17 04:29:28;;;;;;;5.05;2.55;;;18.80;46.90;;;;;;8362319;28;20068;-49
2024/02/17 04:33:28;;;;;;;4.55;2.20;;;18.80;46.90;;;;;;8361217;28;20029;-50
2024/02/17 04:37:29;;;;;;;3.83;2.30;;;18.80;46.90;;;;;;8362897;28;20117;-50
2024/02/17 04:41:30;;;;;;;3.55;2.25;;;18.80;46.90;;;;;;8362088;28;20072;-54
2024/02/17 04:45:30;;;;;;;5.10;3.03;;;18.80;46.90;;;;;;8361896;28;20382;-53
2024/02/17 04:49:31;;;;;;;5.40;2.75;;;18.80;46.80;;;;;;8361811;28;20033;-52
2024/02/17 04:53:32;;;;;;;2.30;2.08;;;18.80;46.90;;;;;;8361772;28;20025;-53
2024/02/17 04:57:32;;;;;;;5.90;2.10;;;18.80;46.90;;;;;;8361425;28;20545;-53
2024/02/17 05:01:33;;;;;;;5.53;2.60;;;18.80;46.80;;;;;;8361409;28;20048;-53
2024/02/17 05:05:34;;;;;;;4.43;2.25;;;18.80;46.80;;;;;;8361112;28;20048;-53
2024/02/17 05:09:34;;;;;;;4.00;2.25;;;18.70;46.80;;;;;;8360935;28;20061;-53
2024/02/17 05:13:35;;;;;;;5.47;2.30;;;18.70;46.80;;;;;;8361044;28;20029;-53
2024/02/17 05:17:36;;;;;;;5.78;2.30;;;18.70;46.80;;;;;;8360869;28;20457;-53
2024/02/17 05:21:37;;;;;;;4.50;2.30;;;18.70;46.80;;;;;;8361054;28;20104;-54
2024/02/17 05:25:38;;;;;;;6.30;2.50;;;18.70;46.80;;;;;;8359546;28;20041;-53
2024/02/17 05:29:39;;;;;;;5.68;2.20;;;18.70;46.80;;;;;;8360640;28;20035;-54
2024/02/17 05:33:40;;;;;;;4.43;2.50;;;18.70;46.70;;;;;;8360516;28;20023;-53
2024/02/17 05:37:40;;;;;;;2.90;1.98;;;18.70;46.70;;;;;;8359281;28;20044;-52
2024/02/17 05:41:42;;;;;;;4.30;2.15;;;18.70;46.70;;;;;;8360155;28;20067;-52
2024/02/17 05:45:42;;;;;;;;;;;18.70;46.70;;;;;;8360456;28;20041;-52
2024/02/17 05:49:45;;;;;;;3.23;1.93;;;18.70;46.70;;;;;;8359010;28;20371;-53
2024/02/17 05:53:46;;;;;;;3.17;2.25;;;18.70;46.70;;;;;;8360079;28;20176;-52
2024/02/17 05:57:46;;;;;;;5.50;3.03;;;18.70;46.70;;;;;;8360031;28;20021;-52
2024/02/17 06:01:47;;;;;;;3.67;2.25;;;18.70;46.70;;;;;;8359647;28;20387;-53
2024/02/17 06:05:48;;;;;;;3.40;2.13;;;18.70;46.70;;;;;;8359817;28;20434;-53
2024/02/17 06:09:48;;;;;;;2.75;2.15;;;18.70;46.70;;;;;;8359607;28;20057;-53
2024/02/17 06:13:49;;;;;;;2.40;2.17;;;18.70;46.70;;;;;;8359603;28;20116;-52
2024/02/17 06:21:10;;;;;;;3.50;2.10;;;18.70;46.70;;;;;;8359660;28;20025;-52
2024/02/17 06:22:10;;;;;;;3.97;1.97;;;18.70;46.70;;;;;;8359613;28;20036;-52
2024/02/17 06:26:27;;;;;;;3.05;2.08;;;18.70;46.60;;;;;;8359950;28;20057;-52
2024/02/17 06:30:28;;;;;;;4.18;2.10;;;18.70;46.50;;;;;;8359221;28;20032;-52
2024/02/17 06:34:28;;;;;;;4.13;2.13;;;18.80;46.40;;;;;;8359578;28;20108;-52
2024/02/17 06:38:29;;;;;;;3.88;1.70;;;18.80;46.40;;;;;;8359561;28;20108;-51
2024/02/17 06:42:30;;;;;;;3.60;1.83;;;18.90;46.30;;;;;;8359180;28;20076;-53
2024/02/17 06:46:31;;;;;;;2.78;1.55;;;18.90;46.20;;;;;;8359467;28;20041;-51
2024/02/17 06:50:31;;;;;;;2.35;1.73;;;18.90;46.20;;;;;;8359305;28;20406;-52
2024/02/17 06:54:32;;;;;;;4.65;2.03;;;18.90;46.10;;;;;;8359132;28;20037;-52
2024/02/17 06:58:33;;;;;;;3.70;2.25;;;18.90;46.10;;;;;;8362375;28;20068;-51
2024/02/17 07:02:33;;;;;;;4.07;1.98;;;18.90;46.10;;;;;;8365214;28;20148;-53
2024/02/17 07:06:34;;;;;;;1.98;1.85;;;18.90;46.10;;;;;;8363920;28;20482;-53
2024/02/17 07:10:36;;;;;;;3.13;1.98;;;18.90;46.20;;;;;;8365358;28;20402;-52
2024/02/17 07:14:38;;;;;;;2.20;1.77;;;18.90;46.10;;;;;;8364771;28;20475;-54
2024/02/17 07:18:39;;;;;;;3.03;1.70;;;18.90;46.00;;;;;;8364595;28;20035;-54
2024/02/17 07:22:40;;;;;;;2.78;1.88;;;18.90;46.00;;;;;;8364655;28;20508;-52
2024/02/17 07:26:44;;;;;;;4.47;2.53;;;19.00;46.10;;;;;;8364402;28;20418;-53
2024/02/17 07:30:45;;;;;;;3.63;1.85;;;18.90;46.00;;;;;;8364138;28;20107;-52
2024/02/17 07:34:46;;;;;;;3.95;2.55;;;19.00;46.00;;;;;;8364295;28;20025;-53
2024/02/17 07:38:46;;;;;;;2.03;1.70;;;18.90;46.10;;;;;;8364052;28;20471;-54
2024/02/17 07:42:47;;;;;;;2.05;1.60;;;18.90;46.00;;;;;;8363824;28;20102;-55
2024/02/17 07:46:49;;;;;;;2.25;1.98;;;18.90;46.00;;;;;;8363867;28;20111;-54
2024/02/17 07:50:49;;;;;;;2.72;1.52;;;18.90;46.00;;;;;;8363628;28;20029;-53
2024/02/17 07:54:50;;;;;;;3.35;1.90;;;19.00;46.00;;;;;;8362421;28;20066;-54
2024/02/17 07:58:51;;;;;;;1.80;1.60;;;19.00;46.00;;;;;;8363172;28;20033;-52
2024/02/17 08:02:51;;;;;;;2.50;1.90;;;18.90;45.90;;;;;;8363416;28;20582;-53
2024/02/17 08:06:55;;;;;;;3.10;2.10;;;18.90;45.90;;;;;;8363073;28;20037;-53
2024/02/17 08:10:55;;;;;;;3.55;1.70;;;19.00;46.00;;;;;;8362763;28;20048;-54
2024/02/17 08:14:56;;;;;;;2.47;1.85;;;19.00;45.90;;;;;;8361923;28;20065;-54
2024/02/17 08:18:57;;;;;;;3.03;1.98;;;19.00;45.90;;;;;;8362732;28;20548;-54
2024/02/17 08:22:58;;;;;;;3.60;2.13;;;19.00;45.90;;;;;;8362966;28;20457;-54
2024/02/17 08:26:59;;;;;;;3.38;2.00;;;19.00;45.90;;;;;;8362520;28;20036;-54
2024/02/17 08:31:00;;;;;;;2.33;1.60;;;19.00;45.90;;;;;;8362296;28;20064;-54
2024/02/17 08:35:00;;;;;;;1.92;1.70;;;19.00;45.90;;;;;;8361354;28;20479;-54
2024/02/17 08:39:01;;;;;;;2.20;1.50;;;19.00;45.80;;;;;;8361067;28;20402;-52
2024/02/17 08:43:02;;;;;;;2.58;1.88;;;19.00;45.80;;;;;;8361878;28;20072;-52
2024/02/17 08:47:02;;;;;;;2.83;1.80;;;19.00;45.90;;;;;;8362192;28;20509;-53
2024/02/17 08:51:03;;;;;;;2.28;1.63;;;19.00;45.90;;;;;;8361760;28;20546;-53
2024/02/17 08:55:04;;;;;;;1.75;1.48;;;19.00;45.90;;;;;;8361741;28;20103;-50
2024/02/17 08:59:05;;;;;;;2.25;1.60;;;18.90;45.90;;;;;;8362411;28;20033;-53
2024/02/17 09:03:24;;;;;;;2.22;1.60;;;19.00;45.90;;;;;;8361500;28;20050;-54
2024/02/17 09:07:27;;;;;;;1.58;1.48;;;18.90;45.90;;;;;;8361371;28;20102;-53
2024/02/17 09:11:27;;;;;;;2.72;1.83;;;18.90;45.90;;;;;;8360889;28;20041;-54
2024/02/17 09:15:28;;;;;;;2.47;1.60;;;18.90;45.90;;;;;;8361093;28;20117;-54
2024/02/17 09:19:31;;;;;;;3.10;1.55;;;18.90;46.40;;;;;;8360561;28;20037;-54
2024/02/17 09:23:32;;;;;;;3.00;1.67;;;19.00;45.90;;;;;;8360960;28;20029;-53
2024/02/17 09:27:33;;;;;;;2.95;1.80;;;18.90;45.90;;;;;;8360909;28;20036;-50
2024/02/17 09:31:33;;;;;;;3.13;1.67;;;18.90;45.90;;;;;;8360690;28;20434;-51
2024/02/17 09:35:34;;;;;;;2.03;1.60;;;18.90;45.90;;;;;;8360530;28;20069;-50
2024/02/17 09:39:38;;;;;;;2.80;1.65;;;18.90;45.90;;;;;;8359023;28;20102;-51
2024/02/17 09:43:38;;;;;;;2.10;1.70;;;18.90;45.90;;;;;;8360238;28;20033;-52
2024/02/17 09:47:43;;;;;;;2.65;1.67;;;18.90;45.90;;;;;;8360284;28;20061;-52
2024/02/17 09:51:47;;;;;;;3.00;1.42;;;19.00;45.90;;;;;;8359822;28;20029;-52
2024/02/17 09:55:48;;;;;;;2.03;1.38;;;18.90;45.80;;;;;;8359945;28;20039;-52
2024/02/17 09:59:49;;;;;;;2.20;1.73;;;18.90;45.90;;;;;;8358848;28;20037;-50
2024/02/17 10:03:52;;;;;;;3.05;1.80;;;18.90;45.90;;;;;;8359688;28;20040;-53
2024/02/17 10:07:53;;;;;;;2.00;1.60;;;18.90;45.80;;;;;;8359842;28;20079;-52
2024/02/17 10:11:54;;;;;;;2.30;1.55;;;18.90;45.80;;;;;;8359466;28;20084;-52
2024/02/17 10:15:56;;;;;;;1.80;1.50;;;18.90;45.80;;;;;;8359663;28;20087;-50
2024/02/17 10:19:57;;;;;;;3.50;1.77;;;18.90;45.80;;;;;;8359501;28;20158;-52
2024/02/17 10:24:02;;;;;;;2.08;1.85;;;18.90;45.80;;;;;;8359557;28;20037;-51
2024/02/17 10:28:04;;;;;;;2.28;1.60;;;18.90;45.80;;;;;;8359375;28;20025;-52
2024/02/17 10:32:06;;;;;;;2.08;1.40;;;18.90;45.80;;;;;;8361724;28;20029;-52
2024/02/17 10:36:07;;;;;;;2.00;1.63;;;18.90;45.80;;;;;;8365980;28;20115;-49
2024/02/17 10:40:11;;;;;;;1.85;1.45;;;19.00;45.90;;;;;;8364814;28;20039;-50
2024/02/17 10:44:11;;;;;;;1.92;1.42;;;18.90;45.80;;;;;;8366073;28;20025;-50
2024/02/17 10:48:14;;;;;;;2.05;1.38;;;18.90;45.80;;;;;;8365677;28;20037;-50
2024/02/17 10:52:21;;;;;;;2.17;1.33;;;19.00;45.90;;;;;;8365496;28;20048;-50
2024/02/17 10:56:23;;;;;;;2.95;1.60;;;19.00;45.80;;;;;;8365273;28;20107;-51
2024/02/17 11:00:24;;;;;;;2.03;1.27;;;18.90;45.80;;;;;;8365534;28;20548;-49
2024/02/17 11:04:25;;;;;;;;;;;18.90;46.30;;;;;;8365686;28;20391;-50
2024/02/17 11:08:26;;;;;;;1.63;1.50;;;18.90;45.80;;;;;;8365055;28;19908;-49
2024/02/17 11:12:33;;;;;;;1.70;1.17;;;18.90;45.80;;;;;;8363676;28;20052;-50
2024/02/17 11:16:35;;;;;;;1.50;1.27;;;19.00;45.80;;;;;;8364851;28;20087;-49
2024/02/17 11:20:35;;;;;;;;;;;18.90;45.70;;;;;;8365147;28;20036;-49
2024/02/17 11:24:37;;;;;;;1.30;1.20;;;18.90;45.70;;;;;;8365110;28;19962;-49
2024/02/17 11:28:38;;;;;;;1.92;1.38;;;18.90;45.70;;;;;;8364328;28;20036;-49
2024/02/17 11:32:39;;;;;;;1.80;1.40;;;19.00;45.80;;;;;;8346438;28;20479;-51
2024/02/17 11:36:40;;;;;;;2.30;1.27;;;18.90;45.70;;;;;;8364235;28;20108;-50
2024/02/17 11:40:40;;;;;;;1.20;1.10;;;18.90;45.80;;;;;;8363929;28;20781;-50
2024/02/17 11:44:42;;;;;;;1.58;1.13;;;19.00;45.80;;;;;;8363387;28;20257;-52
2024/02/17 11:48:43;;;;;;;1.95;1.42;;;19.00;45.80;;;;;;8363945;28;20718;-50
2024/02/17 11:52:44;;;;;;;2.45;1.20;;;19.00;45.80;;;;;;8363481;28;20334;-49
2024/02/17 11:56:45;;;;;;;2.30;1.50;;;18.90;45.70;;;;;;8363515;28;20108;-49
2024/02/17 12:00:46;;;;;;;;;;;18.90;45.70;;;;;;8364009;28;20040;-49
2024/02/17 12:04:49;;;;;;;1.10;1.00;;;18.90;45.80;;;;;;8363484;28;20003;-49
2024/02/17 12:08:50;;;;;;;1.35;1.13;;;18.90;45.80;;;;;;8363062;28;20029;-51
2024/02/17 12:12:51;;;;;;;2.50;1.63;;;18.90;45.80;;;;;;8362993;28;20037;-51
2024/02/17 12:16:51;;;;;;;1.85;1.30;;;18.90;45.80;;;;;;8363171;28;20025;-49
2024/02/17 12:20:52;;;;;;;1.77;1.25;;;18.90;45.70;;;;;;8362593;28;20042;-49
2024/02/17 12:24:53;;;;;;;2.92;1.67;;;18.90;45.70;;;;;;8362651;28;20376;-47
2024/02/17 12:28:55;;;;;;;2.15;1.17;;;18.90;45.70;;;;;;8362527;28;20163;-50
2024/02/17 12:33:06;;;;;;;2.08;1.20;;;18.90;45.70;;;;;;8361336;28;20041;-51
2024/02/17 12:37:09;;;;;;;1.48;1.15;;;18.90;45.70;;;;;;8362517;28;20029;-51
2024/02/17 12:41:09;;;;;;;1.23;1.10;;;18.90;45.70;;;;;;8362009;28;20435;-48
2024/02/17 12:45:30;;;;;;;1.77;1.17;;;18.90;45.70;;;;;;8362140;28;20453;-49
2024/02/17 12:49:31;;;;;;;2.00;1.50;;;18.90;45.70;;;;;;8362053;28;20065;-51
2024/02/17 12:53:37;;;;;;;2.30;1.27;;;18.90;45.80;;;;;;8360494;28;20044;-50
2024/02/17 12:57:38;;;;;;;1.45;1.30;;;18.90;45.90;;;;;;8361632;28;20032;-50
2024/02/17 13:01:38;;;;;;;1.85;1.27;;;18.90;45.90;;;;;;8361825;28;20033;-49
2024/02/17 13:05:42;;;;;;;1.25;1.10;;;18.90;45.90;;;;;;8361474;28;20025;-48
2024/02/17 13:09:42;;;;;;;1.52;1.30;;;18.90;45.90;;;;;;8361144;28;20049;-48
2024/02/17 13:13:43;;;;;;;1.50;1.40;;;18.90;45.90;;;;;;8361215;28;20107;-49
2024/02/17 13:17:44;;;;;;;1.20;1.10;;;18.90;45.90;;;;;;8359833;28;20068;-52
2024/02/17 13:21:45;;;;;;;1.90;1.33;;;18.90;45.90;;;;;;8360880;28;20029;-49
2024/02/17 13:25:45;;;;;;;2.17;1.77;;;18.90;45.90;;;;;;8360651;28;20104;-51
2024/02/17 13:29:46;;;;;;;1.50;1.00;;;18.90;45.80;;;;;;8360810;28;20105;-50
2024/02/17 13:33:47;;;;;;;1.67;1.27;;;18.90;45.80;;;;;;8360610;28;20029;-50
2024/02/17 13:37:48;;;;;;;2.08;1.38;;;18.90;45.70;;;;;;8360605;28;20032;-49
2024/02/17 13:41:49;;;;;;;;;;;18.90;45.70;;;;;;8360906;28;20037;-50
2024/02/17 13:45:50;;;;;;;1.40;1.20;;;19.00;45.70;;;;;;8360506;28;20018;-49
2024/02/17 13:49:51;;;;;;;1.58;1.33;;;19.00;45.70;;;;;;8360241;28;20043;-49
2024/02/17 13:53:52;;;;;;;1.77;1.30;;;19.00;45.60;;;;;;8360249;28;20386;-50
2024/02/17 13:57:53;;;;;;;;;;;19.00;45.70;;;;;;8359255;28;20033;-52
2024/02/17 14:01:53;;;;;;;1.30;1.10;;;19.00;45.70;;;;;;8360355;28;19909;-49
2024/02/17 14:05:54;;;;;;;1.40;1.20;;;18.90;45.70;;;;;;8359904;28;20134;-51
2024/02/17 14:09:55;;;;;;;2.05;1.40;;;18.90;45.70;;;;;;8358267;28;20426;-53
2024/02/17 14:14:00;;;;;;;0.93;0.90;;;18.90;45.80;;;;;;8359682;28;20040;-50
2024/02/17 14:18:01;;;;;;;1.30;1.20;;;18.90;45.70;;;;;;8359730;28;20490;-53
2024/02/17 14:22:02;;;;;;;1.20;1.10;;;18.90;45.70;;;;;;8359516;28;20410;-52
2024/02/17 14:26:03;;;;;;;1.75;1.20;;;19.00;45.80;;;;;;8358050;28;20083;-50
2024/02/17 14:30:05;;;;;;;1.00;0.90;;;18.90;45.70;;;;;;8359582;28;20078;-50
2024/02/17 14:34:05;;;;;;;1.90;1.20;;;19.00;45.70;;;;;;8359254;28;20406;-51
2024/02/17 14:38:06;;;;;;;0.95;0.90;;;19.00;45.70;;;;;;8359463;28;20128;-52
2024/02/17 14:42:07;;;;;;;1.67;1.05;;;19.00;45.70;;;;;;8358050;28;20037;-52
2024/02/17 14:46:10;;;;;;;1.10;1.00;;;19.00;45.60;;;;;;8358994;28;20040;-52
2024/02/17 14:50:11;;;;;;;1.20;0.98;;;19.00;45.60;;;;;;8359217;28;20099;-52
2024/02/17 14:54:12;;;;;;;1.20;1.10;;;19.00;45.60;;;;;;8358908;28;20471;-52
2024/02/17 14:58:12;;;;;;;1.20;1.00;;;19.00;45.60;;;;;;8358743;28;20025;-51
2024/02/17 15:02:14;;;;;;;1.13;0.93;;;19.00;45.60;;;;;;8359089;28;20029;-53
2024/02/17 15:06:15;;;;;;;1.20;1.10;;;19.00;45.60;;;;;;8358783;28;20061;-52
2024/02/17 15:10:16;;;;;;;1.45;1.10;;;19.00;45.60;;;;;;8358492;28;20053;-52
2024/02/17 15:14:16;;;;;;;1.67;1.20;;;19.00;45.60;;;;;;8359242;28;20506;-53
2024/02/17 15:18:17;;;;;;;0.80;0.80;;;19.00;45.70;;;;;;8361971;28;20037;-52
2024/02/17 15:22:18;;;;;;;1.48;1.00;;;18.90;45.70;;;;;;8364880;28;20052;-52
2024/02/17 15:26:19;;;;;;;1.00;0.90;;;18.90;45.80;;;;;;8364410;28;20145;-54
2024/02/17 15:30:19;;;;;;;1.10;1.00;;;18.90;45.80;;;;;;8364321;28;20029;-53
2024/02/17 15:34:20;;;;;;;1.08;0.98;;;18.90;45.80;;;;;;8364663;28;20029;-53
2024/02/17 15:38:21;;;;;;;1.60;1.20;;;18.90;45.80;;;;;;8364384;28;20104;-52
2024/02/17 15:42:21;;;;;;;1.33;1.17;;;18.90;45.80;;;;;;8363769;28;20045;-54
2024/02/17 15:46:22;;;;;;;1.13;0.98;;;18.90;45.80;;;;;;8364077;28;20025;-53
2024/02/17 15:50:26;;;;;;;1.02;1.00;;;19.00;45.70;;;;;;8364363;28;20036;-52
2024/02/17 15:54:28;;;;;;;1.00;0.90;;;19.00;45.90;;;;;;8363583;28;20033;-53
2024/02/17 15:58:29;;;;;;;1.00;0.73;;;19.00;45.60;;;;;;8363640;28;20063;-53
2024/02/17 16:02:29;;;;;;;;;;;19.00;45.60;;;;;;8363978;28;20039;-53
2024/02/17 16:06:30;;;;;;;1.20;1.00;;;19.00;45.60;;;;;;8363328;28;19908;-53
2024/02/17 16:10:31;;;;;;;0.80;0.80;;;19.00;45.60;;;;;;8363184;28;20064;-53
2024/02/17 16:14:37;;;;;;;1.40;1.23;;;19.00;45.60;;;;;;8363060;28;20816;-53
2024/02/17 16:18:39;;;;;;;1.30;1.02;;;19.00;45.60;;;;;;8362947;28;20036;-53
2024/02/17 16:22:42;;;;;;;1.05;0.93;;;19.10;45.60;;;;;;8362718;28;20037;-52
2024/02/17 16:26:46;;;;;;;1.02;0.98;;;19.10;45.50;;;;;;8362489;28;20032;-51
2024/02/17 16:30:49;;;;;;;1.30;0.98;;;19.10;45.50;;;;;;8362468;28;20431;-49
2024/02/17 16:34:50;;;;;;;1.00;0.90;;;19.00;45.60;;;;;;8362578;28;20025;-50
2024/02/17 16:39:07;;;;;;;1.10;1.00;;;19.00;45.60;;;;;;8362413;28;20536;-48
2024/02/17 16:43:08;;;;;;;0.80;0.80;;;19.00;45.60;;;;;;8362104;28;20452;-51
2024/02/17 16:47:12;;;;;;;1.33;1.13;;;19.00;45.60;;;;;;8362343;28;20033;-50
2024/02/17 16:51:12;;;;;;;0.80;0.80;;;19.00;45.60;;;;;;8361893;28;20368;-51
2024/02/17 16:55:13;;;;;;;1.08;0.98;;;19.00;45.70;;;;;;8361721;28;20109;-50
2024/02/17 16:59:14;;;;;;;1.10;1.00;;;19.00;45.60;;;;;;8361429;28;20445;-51
2024/02/17 17:03:15;;;;;;;0.90;0.80;;;19.00;45.70;;;;;;8361535;28;20686;-50
2024/02/17 17:07:17;;;;;;;1.55;1.00;;;18.90;45.60;;;;;;8361317;28;20482;-52
2024/02/17 17:11:21;;;;;;;0.88;0.70;;;18.90;45.70;;;;;;8361082;28;20052;-49
2024/02/17 17:15:22;;;;;;;1.08;0.90;;;18.90;45.70;;;;;;8361288;28;20044;-50
2024/02/17 17:19:23;;;;;;;1.40;1.13;;;18.90;45.70;;;;;;8359867;28;20151;-50
2024/02/17 17:23:24;;;;;;;0.93;0.80;;;18.90;45.70;;;;;;8360981;28;20031;-50
2024/02/17 17:27:24;;;;;;;0.80;0.80;;;18.90;45.70;;;;;;8360867;28;20033;-51
2024/02/17 17:31:25;;;;;;;1.35;1.00;;;18.90;45.70;;;;;;8360571;28;20083;-50
2024/02/17 17:35:26;;;;;;;1.35;1.00;;;18.90;45.70;;;;;;8359491;28;20513;-54
2024/02/17 17:39:26;;;;;;;1.05;0.85;;;18.90;45.70;;;;;;8360424;28;20032;-54
2024/02/17 17:43:28;;;;;;;1.08;0.98;;;18.90;45.70;;;;;;8360025;28;20075;-54
2024/02/17 17:47:32;;;;;;;0.85;0.85;;;18.90;45.70;;;;;;8360442;28;20498;-53
2024/02/17 17:51:33;;;;;;;1.20;0.88;;;19.00;45.70;;;;;;8360142;28;20128;-53
2024/02/17 17:55:33;;;;;;;1.05;0.90;;;19.00;45.70;;;;;;8360044;28;20037;-53
2024/02/17 17:59:34;;;;;;;0.70;0.70;;;19.00;45.70;;;;;;8360291;28;20535;-54
2024/02/17 18:03:36;;;;;;;0.85;0.75;;;19.00;45.70;;;;;;8359938;28;20029;-53
2024/02/17 18:07:37;;;;;;;1.13;0.90;;;19.00;45.60;;;;;;8359762;28;20057;-53
2024/02/17 18:11:39;;;;;;;0.90;0.80;;;19.00;45.60;;;;;;8341832;28;20106;-52
2024/02/17 18:15:40;;;;;;;1.25;0.90;;;19.00;45.60;;;;;;8359814;28;20029;-54
2024/02/17 18:19:41;;;;;;;1.08;0.98;;;19.00;45.60;;;;;;8359723;28;20041;-52
2024/02/17 18:23:42;;;;;;;1.02;0.90;;;19.00;45.60;;;;;;8359485;28;20033;-52
2024/02/17 18:27:42;;;;;;;0.80;0.80;;;19.00;45.60;;;;;;8359336;28;20060;-53
2024/02/17 18:31:43;;;;;;;0.80;0.80;;;19.00;45.60;;;;;;8359396;28;20040;-54
2024/02/17 18:35:46;;;;;;;1.00;0.90;;;19.00;45.60;;;;;;8359335;28;20646;-53
2024/02/17 18:39:46;;;;;;;0.77;0.65;;;19.00;45.50;;;;;;8359336;28;20085;-52
2024/02/17 18:43:47;;;;;;;1.20;1.10;;;19.00;45.50;;;;;;8359110;28;20115;-53
2024/02/17 18:47:48;;;;;;;1.33;1.08;;;19.00;45.60;;;;;;8359192;28;20108;-52
2024/02/17 18:51:49;;;;;;;1.08;0.70;;;19.00;45.50;;;;;;8359233;28;20041;-52
2024/02/17 18:55:50;;;;;;;1.17;1.10;;;19.00;45.60;;;;;;8365389;28;20029;-52
2024/02/17 18:59:52;;;;;;;1.23;1.08;;;19.00;45.60;;;;;;8365614;28;20044;-51
2024/02/17 19:03:52;;;;;;;0.90;0.88;;;19.00;45.60;;;;;;8365571;28;20486;-50
2024/02/17 19:07:53;;;;;;;0.93;0.80;;;18.90;45.60;;;;;;8364891;28;20430;-53
2024/02/17 19:11:54;;;;;;;1.10;0.77;;;19.00;45.60;;;;;;8364904;28;20057;-52
2024/02/17 19:15:55;;;;;;;0.93;0.85;;;19.00;45.60;;;;;;8364926;28;20033;-53
2024/02/17 19:19:56;;;;;;;1.00;0.90;;;19.00;45.50;;;;;;8364932;28;20171;-51
2024/02/17 19:23:56;;;;;;;0.80;0.77;;;19.00;45.50;;;;;;8364849;28;20033;-50
2024/02/17 19:27:57;;;;;;;1.00;0.73;;;19.00;45.50;;;;;;8364533;28;20402;-52
2024/02/17 19:31:58;;;;;;;0.88;0.70;;;19.00;45.50;;;;;;8364367;28;20041;-52
2024/02/17 19:35:58;;;;;;;0.95;0.70;;;19.00;45.50;;;;;;8364223;28;20040;-53
2024/02/17 19:39:59;;;;;;;0.70;0.70;;;19.00;45.60;;;;;;8364440;28;20041;-52
2024/02/17 19:44:00;;;;;;;1.13;0.93;;;19.00;45.60;;;;;;8364073;28;20067;-52
2024/02/17 19:48:01;;;;;;;0.80;0.70;;;19.00;45.60;;;;;;8363965;28;20131;-52
2024/02/17 19:52:02;;;;;;;0.85;0.80;;;19.00;45.60;;;;;;8362576;28;20041;-53
2024/02/17 19:56:03;;;;;;;1.10;0.90;;;19.00;45.50;;;;;;8363698;28;20037;-52
2024/02/17 20:00:05;;;;;;;1.00;0.90;;;19.00;45.60;;;;;;8363653;28;20040;-52
2024/02/17 20:04:06;;;;;;;0.90;0.60;;;19.00;45.50;;;;;;8363006;28;20033;-52
2024/02/17 20:08:08;;;;;;;1.08;0.80;;;18.90;45.50;;;;;;8363355;28;20060;-53
2024/02/17 20:12:09;;;;;;;0.90;0.73;;;18.90;45.60;;;;;;8362934;28;20053;-52
2024/02/17 20:16:10;;;;;;;1.38;0.90;;;18.90;45.70;;;;;;8362893;28;20068;-52
2024/02/17 20:20:11;;;;;;;1.02;0.93;;;18.90;45.70;;;;;;8363064;28;20086;-52
2024/02/17 20:24:11;;;;;;;0.57;0.57;;;18.90;45.70;;;;;;8362813;28;20390;-52
2024/02/17 20:28:12;;;;;;;0.77;0.77;;;18.90;45.70;;;;;;8362735;28;20032;-52
2024/02/17 20:32:13;;;;;;;1.85;1.00;;;18.90;45.70;;;;;;8362666;28;20040;-52
2024/02/17 20:36:13;;;;;;;1.00;0.90;;;18.90;45.70;;;;;;8362384;28;20112;-51
2024/02/17 20:40:14;;;;;;;1.00;0.80;;;18.90;45.70;;;;;;8362362;28;20072;-52
2024/02/17 20:44:15;;;;;;;0.80;0.70;;;18.90;45.60;;;;;;8361038;28;20287;-53
2024/02/17 20:48:17;;;;;;;0.73;0.73;;;19.00;45.60;;;;;;8361833;28;20037;-52
2024/02/17 20:52:17;;;;;;;0.90;0.70;;;19.00;45.60;;;;;;8361829;28;20044;-49
2024/02/17 20:56:18;;;;;;;1.40;0.98;;;19.00;45.60;;;;;;8361545;28;20062;-52